sensor_id;sensor_type;location;lat;lon;timestamp;pressure;altitude;pressure_sealevel;temperature;humidity
40794;BME280;26502;51.886;15.604;2023-02-13T00:01:29;102797.48;;;4.94;84.69
40794;BME280;26502;51.886;15.604;2023-02-13T00:06:37;102795.73;;;4.95;85.04
40794;BME280;26502;51.886;15.604;2023-02-13T00:11:45;102793.73;;;4.99;85.09
40794;BME280;26502;51.886;15.604;2023-02-13T00:16:52;102787.42;;;5.02;84.94
40794;BME280;26502;51.886;15.604;2023-02-13T00:22:00;102787.09;;;5.02;84.90
40794;BME280;26502;51.886;15.604;2023-02-13T00:27:08;102787.99;;;5.03;85.10
40794;BME280;26502;51.886;15.604;2023-02-13T00:32:15;102788.56;;;5.03;85.12
40794;BME280;26502;51.886;15.604;2023-02-13T00:37:22;102785.78;;;5.06;85.33
40794;BME280;26502;51.886;15.604;2023-02-13T00:42:30;102785.52;;;5.09;85.44
40794;BME280;26502;51.886;15.604;2023-02-13T00:47:38;102776.89;;;5.09;85.45
40794;BME280;26502;51.886;15.604;2023-02-13T00:52:45;102779.55;;;5.10;85.37
40794;BME280;26502;51.886;15.604;2023-02-13T00:57:52;102776.08;;;5.12;85.48
40794;BME280;26502;51.886;15.604;2023-02-13T01:03:00;102773.25;;;5.12;85.46
40794;BME280;26502;51.886;15.604;2023-02-13T01:08:08;102770.28;;;5.13;85.50
40794;BME280;26502;51.886;15.604;2023-02-13T01:13:17;102766.54;;;5.18;85.57
40794;BME280;26502;51.886;15.604;2023-02-13T01:18:24;102761.27;;;5.19;85.72
40794;BME280;26502;51.886;15.604;2023-02-13T01:23:34;102759.10;;;5.24;85.90
40794;BME280;26502;51.886;15.604;2023-02-13T01:28:43;102760.59;;;5.27;85.81
40794;BME280;26502;51.886;15.604;2023-02-13T01:33:51;102759.16;;;5.27;85.77
40794;BME280;26502;51.886;15.604;2023-02-13T01:39:00;102743.68;;;5.28;85.83
40794;BME280;26502;51.886;15.604;2023-02-13T01:49:45;102735.44;;;5.22;85.96
40794;BME280;26502;51.886;15.604;2023-02-13T01:54:53;102738.19;;;5.19;86.02
40794;BME280;26502;51.886;15.604;2023-02-13T02:00:05;102740.52;;;5.21;86.12
40794;BME280;26502;51.886;15.604;2023-02-13T02:05:27;102735.59;;;5.21;86.26
40794;BME280;26502;51.886;15.604;2023-02-13T02:10:37;102733.94;;;5.26;86.34
40794;BME280;26502;51.886;15.604;2023-02-13T02:15:47;102732.24;;;5.29;86.45
40794;BME280;26502;51.886;15.604;2023-02-13T02:21:26;102728.90;;;5.28;86.39
40794;BME280;26502;51.886;15.604;2023-02-13T02:26:59;102731.58;;;5.30;86.48
40794;BME280;26502;51.886;15.604;2023-02-13T02:32:31;102724.70;;;5.30;86.72
40794;BME280;26502;51.886;15.604;2023-02-13T02:37:54;102727.02;;;5.31;86.57
40794;BME280;26502;51.886;15.604;2023-02-13T02:43:16;102724.07;;;5.33;86.60
40794;BME280;26502;51.886;15.604;2023-02-13T02:48:34;102717.73;;;5.33;86.72
40794;BME280;26502;51.886;15.604;2023-02-13T02:54:07;102717.90;;;5.33;86.66
40794;BME280;26502;51.886;15.604;2023-02-13T02:59:37;102719.14;;;5.34;86.99
40794;BME280;26502;51.886;15.604;2023-02-13T03:05:05;102712.83;;;5.35;87.05
40794;BME280;26502;51.886;15.604;2023-02-13T03:10:36;102704.26;;;5.38;86.93
40794;BME280;26502;51.886;15.604;2023-02-13T03:16:01;102704.92;;;5.37;87.34
40794;BME280;26502;51.886;15.604;2023-02-13T03:21:35;102703.36;;;5.38;87.41
40794;BME280;26502;51.886;15.604;2023-02-13T03:27:07;102699.73;;;5.42;87.30
40794;BME280;26502;51.886;15.604;2023-02-13T03:32:23;102695.45;;;5.46;87.64
40794;BME280;26502;51.886;15.604;2023-02-13T03:37:36;102697.03;;;5.47;87.38
40794;BME280;26502;51.886;15.604;2023-02-13T03:43:05;102709.91;;;5.48;87.51
40794;BME280;26502;51.886;15.604;2023-02-13T03:48:16;102713.65;;;5.49;87.52
40794;BME280;26502;51.886;15.604;2023-02-13T03:53:39;102710.89;;;5.52;87.56
40794;BME280;26502;51.886;15.604;2023-02-13T03:58:52;102705.92;;;5.50;87.76
40794;BME280;26502;51.886;15.604;2023-02-13T04:04:24;102708.64;;;5.54;87.79
40794;BME280;26502;51.886;15.604;2023-02-13T04:09:36;102708.20;;;5.58;87.76
40794;BME280;26502;51.886;15.604;2023-02-13T04:14:49;102708.02;;;5.58;87.77
40794;BME280;26502;51.886;15.604;2023-02-13T04:19:58;102706.63;;;5.59;87.80
40794;BME280;26502;51.886;15.604;2023-02-13T04:25:07;102696.60;;;5.59;88.10
40794;BME280;26502;51.886;15.604;2023-02-13T04:30:15;102693.77;;;5.59;88.01
40794;BME280;26502;51.886;15.604;2023-02-13T04:35:22;102691.86;;;5.61;88.14
40794;BME280;26502;51.886;15.604;2023-02-13T04:40:29;102684.80;;;5.60;88.15
40794;BME280;26502;51.886;15.604;2023-02-13T04:45:37;102680.05;;;5.60;88.28
40794;BME280;26502;51.886;15.604;2023-02-13T04:50:44;102682.17;;;5.61;88.30
40794;BME280;26502;51.886;15.604;2023-02-13T04:55:52;102684.48;;;5.61;88.49
40794;BME280;26502;51.886;15.604;2023-02-13T05:01:01;102688.04;;;5.63;88.60
40794;BME280;26502;51.886;15.604;2023-02-13T05:06:08;102691.27;;;5.66;88.56
40794;BME280;26502;51.886;15.604;2023-02-13T05:11:18;102696.96;;;5.69;88.56
40794;BME280;26502;51.886;15.604;2023-02-13T05:16:25;102700.35;;;5.71;88.45
40794;BME280;26502;51.886;15.604;2023-02-13T05:21:32;102703.17;;;5.71;88.54
40794;BME280;26502;51.886;15.604;2023-02-13T05:26:58;102704.08;;;5.73;88.55
40794;BME280;26502;51.886;15.604;2023-02-13T05:32:06;102711.88;;;5.74;88.38
40794;BME280;26502;51.886;15.604;2023-02-13T05:37:15;102717.04;;;5.76;88.44
40794;BME280;26502;51.886;15.604;2023-02-13T05:42:24;102727.04;;;5.74;88.24
40794;BME280;26502;51.886;15.604;2023-02-13T05:47:33;102724.81;;;5.68;88.16
40794;BME280;26502;51.886;15.604;2023-02-13T05:52:40;102731.21;;;5.63;88.11
40794;BME280;26502;51.886;15.604;2023-02-13T05:57:47;102729.20;;;5.59;87.98
40794;BME280;26502;51.886;15.604;2023-02-13T06:02:55;102737.76;;;5.55;87.92
40794;BME280;26502;51.886;15.604;2023-02-13T06:08:04;102738.98;;;5.47;87.62
40794;BME280;26502;51.886;15.604;2023-02-13T06:13:12;102750.54;;;5.43;87.82
40794;BME280;26502;51.886;15.604;2023-02-13T06:18:19;102762.56;;;5.38;87.77
40794;BME280;26502;51.886;15.604;2023-02-13T06:23:27;102767.78;;;5.34;87.81
40794;BME280;26502;51.886;15.604;2023-02-13T06:28:35;102772.29;;;5.31;87.68
40794;BME280;26502;51.886;15.604;2023-02-13T06:33:43;102777.15;;;5.28;87.73
40794;BME280;26502;51.886;15.604;2023-02-13T06:38:53;102776.55;;;5.25;87.75
40794;BME280;26502;51.886;15.604;2023-02-13T06:44:01;102787.11;;;5.24;87.50
40794;BME280;26502;51.886;15.604;2023-02-13T06:49:09;102787.45;;;5.24;87.76
40794;BME280;26502;51.886;15.604;2023-02-13T06:54:17;102786.48;;;5.27;87.58
40794;BME280;26502;51.886;15.604;2023-02-13T06:59:26;102787.41;;;5.30;87.47
40794;BME280;26502;51.886;15.604;2023-02-13T07:04:33;102789.50;;;5.28;87.35
40794;BME280;26502;51.886;15.604;2023-02-13T07:09:41;102790.52;;;5.27;87.35
40794;BME280;26502;51.886;15.604;2023-02-13T07:14:48;102795.55;;;5.32;87.60
40794;BME280;26502;51.886;15.604;2023-02-13T07:19:56;102799.76;;;5.38;87.50
40794;BME280;26502;51.886;15.604;2023-02-13T07:25:04;102802.98;;;5.40;87.39
40794;BME280;26502;51.886;15.604;2023-02-13T07:30:14;102807.90;;;5.40;87.35
40794;BME280;26502;51.886;15.604;2023-02-13T07:35:22;102807.52;;;5.46;87.53
40794;BME280;26502;51.886;15.604;2023-02-13T07:40:30;102818.81;;;5.47;87.43
40794;BME280;26502;51.886;15.604;2023-02-13T07:45:39;102819.22;;;5.57;87.65
40794;BME280;26502;51.886;15.604;2023-02-13T07:50:46;102821.50;;;5.64;87.60
40794;BME280;26502;51.886;15.604;2023-02-13T07:55:54;102829.71;;;5.69;87.35
40794;BME280;26502;51.886;15.604;2023-02-13T08:01:06;102834.32;;;5.70;87.28
40794;BME280;26502;51.886;15.604;2023-02-13T08:06:14;102846.14;;;5.62;87.09
40794;BME280;26502;51.886;15.604;2023-02-13T08:11:36;102843.98;;;5.61;87.31
40794;BME280;26502;51.886;15.604;2023-02-13T08:17:02;102842.64;;;5.64;87.20
40794;BME280;26502;51.886;15.604;2023-02-13T08:22:10;102839.95;;;5.70;87.05
40794;BME280;26502;51.886;15.604;2023-02-13T08:27:17;102837.00;;;5.63;86.79
40794;BME280;26502;51.886;15.604;2023-02-13T08:32:25;102834.34;;;5.55;86.87
40794;BME280;26502;51.886;15.604;2023-02-13T08:37:33;102837.30;;;5.53;86.80
40794;BME280;26502;51.886;15.604;2023-02-13T08:42:41;102834.87;;;5.55;86.94
40794;BME280;26502;51.886;15.604;2023-02-13T08:47:48;102829.33;;;5.60;86.83
40794;BME280;26502;51.886;15.604;2023-02-13T08:52:56;102835.35;;;5.61;86.68
40794;BME280;26502;51.886;15.604;2023-02-13T08:58:04;102834.19;;;5.57;86.51
40794;BME280;26502;51.886;15.604;2023-02-13T09:03:12;102836.95;;;5.54;86.39
40794;BME280;26502;51.886;15.604;2023-02-13T09:08:20;102836.92;;;5.44;86.63
40794;BME280;26502;51.886;15.604;2023-02-13T09:13:30;102844.30;;;5.52;86.72
40794;BME280;26502;51.886;15.604;2023-02-13T09:18:38;102842.77;;;5.47;86.44
40794;BME280;26502;51.886;15.604;2023-02-13T09:23:45;102842.34;;;5.51;86.73
40794;BME280;26502;51.886;15.604;2023-02-13T09:28:53;102843.67;;;5.55;86.61
40794;BME280;26502;51.886;15.604;2023-02-13T09:34:02;102841.80;;;5.51;86.50
40794;BME280;26502;51.886;15.604;2023-02-13T09:39:11;102845.16;;;5.51;86.48
40794;BME280;26502;51.886;15.604;2023-02-13T09:44:22;102845.94;;;5.54;86.53
40794;BME280;26502;51.886;15.604;2023-02-13T09:49:47;102854.25;;;5.55;86.56
40794;BME280;26502;51.886;15.604;2023-02-13T09:54:58;102850.41;;;5.57;86.42
40794;BME280;26502;51.886;15.604;2023-02-13T10:00:11;102847.33;;;5.68;86.56
40794;BME280;26502;51.886;15.604;2023-02-13T10:05:41;102843.85;;;5.71;86.45
40794;BME280;26502;51.886;15.604;2023-02-13T10:10:56;102846.95;;;5.68;86.21
40794;BME280;26502;51.886;15.604;2023-02-13T10:16:11;102844.10;;;5.66;86.10
40794;BME280;26502;51.886;15.604;2023-02-13T10:21:23;102842.30;;;5.64;86.06
40794;BME280;26502;51.886;15.604;2023-02-13T10:26:34;102834.54;;;5.64;86.14
40794;BME280;26502;51.886;15.604;2023-02-13T10:31:52;102829.84;;;5.66;86.15
40794;BME280;26502;51.886;15.604;2023-02-13T10:37:02;102821.61;;;5.78;86.44
40794;BME280;26502;51.886;15.604;2023-02-13T10:42:21;102817.20;;;5.77;86.09
40794;BME280;26502;51.886;15.604;2023-02-13T10:47:43;102818.02;;;5.74;85.99
40794;BME280;26502;51.886;15.604;2023-02-13T10:53:06;102811.75;;;5.78;86.07
40794;BME280;26502;51.886;15.604;2023-02-13T10:58:19;102809.05;;;5.76;85.99
40794;BME280;26502;51.886;15.604;2023-02-13T11:03:29;102806.43;;;5.76;86.08
40794;BME280;26502;51.886;15.604;2023-02-13T11:08:40;102797.19;;;5.82;86.00
40794;BME280;26502;51.886;15.604;2023-02-13T11:14:08;102797.64;;;5.86;86.01
40794;BME280;26502;51.886;15.604;2023-02-13T11:19:20;102799.91;;;5.93;86.03
40794;BME280;26502;51.886;15.604;2023-02-13T11:24:29;102799.63;;;6.04;85.99
40794;BME280;26502;51.886;15.604;2023-02-13T11:29:49;102792.05;;;6.04;85.67
40794;BME280;26502;51.886;15.604;2023-02-13T11:34:57;102792.77;;;6.05;85.57
40794;BME280;26502;51.886;15.604;2023-02-13T11:40:30;102782.08;;;6.08;85.61
40794;BME280;26502;51.886;15.604;2023-02-13T11:45:38;102777.39;;;6.03;85.21
40794;BME280;26502;51.886;15.604;2023-02-13T11:50:52;102775.80;;;6.03;85.41
40794;BME280;26502;51.886;15.604;2023-02-13T11:56:08;102772.51;;;6.06;85.11
40794;BME280;26502;51.886;15.604;2023-02-13T12:01:28;102781.87;;;6.07;85.14
40794;BME280;26502;51.886;15.604;2023-02-13T12:06:36;102791.31;;;6.12;85.04
40794;BME280;26502;51.886;15.604;2023-02-13T12:11:50;102790.81;;;6.13;84.87
40794;BME280;26502;51.886;15.604;2023-02-13T12:17:01;102778.84;;;6.14;84.58
40794;BME280;26502;51.886;15.604;2023-02-13T12:22:23;102771.28;;;6.16;84.63
40794;BME280;26502;51.886;15.604;2023-02-13T12:27:41;102768.33;;;6.18;84.39
40794;BME280;26502;51.886;15.604;2023-02-13T12:32:56;102766.37;;;6.27;84.49
40794;BME280;26502;51.886;15.604;2023-02-13T12:38:18;102757.28;;;6.31;84.22
40794;BME280;26502;51.886;15.604;2023-02-13T12:43:48;102755.20;;;6.33;83.92
40794;BME280;26502;51.886;15.604;2023-02-13T12:49:07;102758.83;;;6.38;83.89
40794;BME280;26502;51.886;15.604;2023-02-13T12:54:40;102749.98;;;6.38;83.68
40794;BME280;26502;51.886;15.604;2023-02-13T13:05:33;102745.05;;;6.39;83.45
40794;BME280;26502;51.886;15.604;2023-02-13T13:10:53;102743.02;;;6.42;83.42
40794;BME280;26502;51.886;15.604;2023-02-13T13:16:12;102741.21;;;6.41;83.29
40794;BME280;26502;51.886;15.604;2023-02-13T13:21:31;102745.33;;;6.44;83.09
40794;BME280;26502;51.886;15.604;2023-02-13T13:26:45;102750.11;;;6.45;82.94
40794;BME280;26502;51.886;15.604;2023-02-13T13:31:58;102753.11;;;6.45;82.78
40794;BME280;26502;51.886;15.604;2023-02-13T13:37:10;102750.54;;;6.48;82.86
40794;BME280;26502;51.886;15.604;2023-02-13T13:42:26;102745.71;;;6.55;82.81
40794;BME280;26502;51.886;15.604;2023-02-13T13:53:22;102738.88;;;6.48;82.42
40794;BME280;26502;51.886;15.604;2023-02-13T13:58:39;102731.30;;;6.49;82.49
40794;BME280;26502;51.886;15.604;2023-02-13T14:03:47;102723.52;;;6.48;82.39
40794;BME280;26502;51.886;15.604;2023-02-13T14:09:04;102718.51;;;6.44;82.19
40794;BME280;26502;51.886;15.604;2023-02-13T14:19:58;102702.98;;;6.44;82.17
40794;BME280;26502;51.886;15.604;2023-02-13T14:25:05;102692.38;;;6.43;82.11
40794;BME280;26502;51.886;15.604;2023-02-13T14:30:28;102686.88;;;6.41;81.87
40794;BME280;26502;51.886;15.604;2023-02-13T14:35:37;102673.69;;;6.34;81.38
40794;BME280;26502;51.886;15.604;2023-02-13T14:40:49;102674.85;;;6.30;81.69
40794;BME280;26502;51.886;15.604;2023-02-13T14:45:57;102685.48;;;6.32;81.68
40794;BME280;26502;51.886;15.604;2023-02-13T14:51:16;102685.50;;;6.34;81.87
40794;BME280;26502;51.886;15.604;2023-02-13T14:56:33;102668.25;;;6.26;81.62
40794;BME280;26502;51.886;15.604;2023-02-13T15:01:51;102652.48;;;6.22;81.88
40794;BME280;26502;51.886;15.604;2023-02-13T15:07:03;102648.29;;;6.14;81.87
40794;BME280;26502;51.886;15.604;2023-02-13T15:12:29;102649.73;;;6.06;82.04
40794;BME280;26502;51.886;15.604;2023-02-13T15:17:38;102658.88;;;6.05;82.18
40794;BME280;26502;51.886;15.604;2023-02-13T15:22:47;102655.56;;;6.06;82.29
40794;BME280;26502;51.886;15.604;2023-02-13T15:28:00;102652.64;;;6.11;82.41
40794;BME280;26502;51.886;15.604;2023-02-13T15:33:18;102642.53;;;6.08;82.32
40794;BME280;26502;51.886;15.604;2023-02-13T15:38:28;102632.80;;;6.07;82.33
40794;BME280;26502;51.886;15.604;2023-02-13T15:43:35;102632.56;;;6.03;82.40
40794;BME280;26502;51.886;15.604;2023-02-13T15:48:45;102639.48;;;6.05;82.48
40794;BME280;26502;51.886;15.604;2023-02-13T15:53:55;102640.69;;;6.03;82.46
40794;BME280;26502;51.886;15.604;2023-02-13T15:59:04;102639.95;;;6.01;82.53
40794;BME280;26502;51.886;15.604;2023-02-13T16:04:13;102635.35;;;6.00;82.49
40794;BME280;26502;51.886;15.604;2023-02-13T16:09:29;102632.90;;;5.93;82.60
40794;BME280;26502;51.886;15.604;2023-02-13T16:14:46;102641.08;;;5.87;82.64
40794;BME280;26502;51.886;15.604;2023-02-13T16:19:58;102657.24;;;5.95;82.92
40794;BME280;26502;51.886;15.604;2023-02-13T16:25:24;102655.10;;;6.00;82.73
40794;BME280;26502;51.886;15.604;2023-02-13T16:30:35;102647.99;;;5.98;82.64
40794;BME280;26502;51.886;15.604;2023-02-13T16:35:45;102642.91;;;5.91;82.76
40794;BME280;26502;51.886;15.604;2023-02-13T16:40:56;102648.85;;;5.89;82.83
40794;BME280;26502;51.886;15.604;2023-02-13T16:46:29;102658.11;;;5.93;82.81
40794;BME280;26502;51.886;15.604;2023-02-13T16:51:42;102648.52;;;5.90;82.84
40794;BME280;26502;51.886;15.604;2023-02-13T16:56:53;102661.29;;;5.94;82.77
40794;BME280;26502;51.886;15.604;2023-02-13T17:02:17;102666.39;;;5.93;82.69
40794;BME280;26502;51.886;15.604;2023-02-13T17:07:30;102670.02;;;5.89;82.80
40794;BME280;26502;51.886;15.604;2023-02-13T17:12:41;102662.37;;;5.85;82.67
40794;BME280;26502;51.886;15.604;2023-02-13T17:17:52;102657.64;;;5.78;82.75
40794;BME280;26502;51.886;15.604;2023-02-13T17:23:03;102671.05;;;5.78;82.92
40794;BME280;26502;51.886;15.604;2023-02-13T17:28:15;102670.18;;;5.79;82.89
40794;BME280;26502;51.886;15.604;2023-02-13T17:33:28;102670.91;;;5.80;82.79
40794;BME280;26502;51.886;15.604;2023-02-13T17:38:40;102666.02;;;5.82;82.78
40794;BME280;26502;51.886;15.604;2023-02-13T17:43:52;102656.84;;;5.73;82.65
40794;BME280;26502;51.886;15.604;2023-02-13T17:49:02;102660.71;;;5.72;82.65
40794;BME280;26502;51.886;15.604;2023-02-13T17:54:14;102655.43;;;5.73;82.67
40794;BME280;26502;51.886;15.604;2023-02-13T17:59:24;102658.81;;;5.74;82.67
40794;BME280;26502;51.886;15.604;2023-02-13T18:04:34;102670.59;;;5.72;82.73
40794;BME280;26502;51.886;15.604;2023-02-13T18:09:49;102674.27;;;5.71;82.75
40794;BME280;26502;51.886;15.604;2023-02-13T18:15:00;102661.69;;;5.68;82.61
40794;BME280;26502;51.886;15.604;2023-02-13T18:20:15;102668.80;;;5.62;82.67
40794;BME280;26502;51.886;15.604;2023-02-13T18:25:28;102668.26;;;5.62;82.69
40794;BME280;26502;51.886;15.604;2023-02-13T18:30:41;102666.39;;;5.65;82.62
40794;BME280;26502;51.886;15.604;2023-02-13T18:35:53;102659.68;;;5.64;82.53
40794;BME280;26502;51.886;15.604;2023-02-13T18:41:10;102661.17;;;5.60;82.56
40794;BME280;26502;51.886;15.604;2023-02-13T18:46:21;102672.05;;;5.58;82.46
40794;BME280;26502;51.886;15.604;2023-02-13T18:51:33;102670.34;;;5.60;82.45
40794;BME280;26502;51.886;15.604;2023-02-13T18:56:59;102670.75;;;5.63;82.37
40794;BME280;26502;51.886;15.604;2023-02-13T19:02:45;102661.00;;;5.68;82.35
40794;BME280;26502;51.886;15.604;2023-02-13T19:08:31;102668.84;;;5.73;82.17
40794;BME280;26502;51.886;15.604;2023-02-13T19:14:03;102669.71;;;5.63;82.00
40794;BME280;26502;51.886;15.604;2023-02-13T19:19:50;102676.88;;;5.60;81.88
40794;BME280;26502;51.886;15.604;2023-02-13T19:25:19;102677.09;;;5.62;81.72
40794;BME280;26502;51.886;15.604;2023-02-13T19:30:39;102683.94;;;5.61;81.49
40794;BME280;26502;51.886;15.604;2023-02-13T19:36:22;102689.27;;;5.54;81.62
40794;BME280;26502;51.886;15.604;2023-02-13T19:47:33;102713.22;;;5.45;81.41
40794;BME280;26502;51.886;15.604;2023-02-13T19:53:01;102719.77;;;5.46;81.28
40794;BME280;26502;51.886;15.604;2023-02-13T19:58:41;102728.76;;;5.46;81.23
40794;BME280;26502;51.886;15.604;2023-02-13T20:04:12;102734.41;;;5.40;81.01
40794;BME280;26502;51.886;15.604;2023-02-13T20:09:42;102736.02;;;5.32;80.86
40794;BME280;26502;51.886;15.604;2023-02-13T20:15:08;102742.29;;;5.29;80.84
40794;BME280;26502;51.886;15.604;2023-02-13T20:20:27;102743.04;;;5.31;80.72
40794;BME280;26502;51.886;15.604;2023-02-13T20:26:06;102742.48;;;5.30;80.55
40794;BME280;26502;51.886;15.604;2023-02-13T20:31:39;102746.72;;;5.30;80.38
40794;BME280;26502;51.886;15.604;2023-02-13T20:36:58;102750.48;;;5.25;80.48
40794;BME280;26502;51.886;15.604;2023-02-13T20:42:23;102754.52;;;5.24;80.50
40794;BME280;26502;51.886;15.604;2023-02-13T20:47:51;102760.14;;;5.23;80.50
40794;BME280;26502;51.886;15.604;2023-02-13T20:53:16;102766.02;;;5.27;80.42
40794;BME280;26502;51.886;15.604;2023-02-13T20:58:33;102776.17;;;5.24;80.26
40794;BME280;26502;51.886;15.604;2023-02-13T21:03:53;102792.52;;;5.22;80.29
40794;BME280;26502;51.886;15.604;2023-02-13T21:09:22;102798.36;;;5.16;79.96
40794;BME280;26502;51.886;15.604;2023-02-13T21:14:50;102802.70;;;5.13;79.99
40794;BME280;26502;51.886;15.604;2023-02-13T21:25:36;102804.64;;;5.06;79.54
40794;BME280;26502;51.886;15.604;2023-02-13T21:30:54;102804.34;;;5.01;79.50
40794;BME280;26502;51.886;15.604;2023-02-13T21:36:12;102809.08;;;5.00;79.28
40794;BME280;26502;51.886;15.604;2023-02-13T21:41:28;102808.20;;;5.01;79.04
40794;BME280;26502;51.886;15.604;2023-02-13T21:46:44;102805.84;;;4.97;78.99
40794;BME280;26502;51.886;15.604;2023-02-13T21:51:54;102806.26;;;4.93;79.03
40794;BME280;26502;51.886;15.604;2023-02-13T21:57:05;102807.75;;;4.89;78.77
40794;BME280;26502;51.886;15.604;2023-02-13T22:02:20;102803.41;;;4.85;78.64
40794;BME280;26502;51.886;15.604;2023-02-13T22:07:28;102801.05;;;4.82;78.63
40794;BME280;26502;51.886;15.604;2023-02-13T22:12:35;102798.75;;;4.81;78.52
40794;BME280;26502;51.886;15.604;2023-02-13T22:17:43;102798.56;;;4.81;78.58
40794;BME280;26502;51.886;15.604;2023-02-13T22:22:51;102805.01;;;4.78;78.36
40794;BME280;26502;51.886;15.604;2023-02-13T22:27:59;102802.98;;;4.75;78.26
40794;BME280;26502;51.886;15.604;2023-02-13T22:33:07;102798.08;;;4.69;78.42
40794;BME280;26502;51.886;15.604;2023-02-13T22:38:16;102798.73;;;4.60;78.27
40794;BME280;26502;51.886;15.604;2023-02-13T22:43:24;102797.34;;;4.54;78.41
40794;BME280;26502;51.886;15.604;2023-02-13T22:48:31;102794.67;;;4.53;78.29
40794;BME280;26502;51.886;15.604;2023-02-13T22:53:39;102794.01;;;4.55;78.32
40794;BME280;26502;51.886;15.604;2023-02-13T22:58:46;102799.04;;;4.58;77.89
40794;BME280;26502;51.886;15.604;2023-02-13T23:03:53;102806.66;;;4.60;78.13
40794;BME280;26502;51.886;15.604;2023-02-13T23:09:02;102801.73;;;4.54;78.06
40794;BME280;26502;51.886;15.604;2023-02-13T23:14:10;102803.46;;;4.53;77.97
40794;BME280;26502;51.886;15.604;2023-02-13T23:19:17;102806.61;;;4.52;78.05
40794;BME280;26502;51.886;15.604;2023-02-13T23:24:24;102810.16;;;4.60;78.39
40794;BME280;26502;51.886;15.604;2023-02-13T23:29:32;102811.59;;;4.67;78.06
40794;BME280;26502;51.886;15.604;2023-02-13T23:34:39;102813.46;;;4.65;77.95
40794;BME280;26502;51.886;15.604;2023-02-13T23:39:47;102811.33;;;4.51;78.02
40794;BME280;26502;51.886;15.604;2023-02-13T23:44:55;102808.27;;;4.42;77.99
40794;BME280;26502;51.886;15.604;2023-02-13T23:50:03;102803.65;;;4.40;77.94
40794;BME280;26502;51.886;15.604;2023-02-13T23:55:11;102801.46;;;4.37;78.27
